Selsey, United Kingdom
Current Conditions -  °F | °C
As of 12:50 PM on Friday 24 Oct 2014 (Local Time) from EGKA Reporting Station
Broken Clouds Broken Clouds  
Wind Chill: 16°   Ceiling: 1200
Heat Index: 16°   Visibility: 5mi
Dew Point: 15°   Wind: 7mph
Humidity: 94%   Direction: 190°S
Pressure: 29.97"   Gusts: NA
Location:  50.74°N, 0.79°W
Report Text: EGKA 241150Z 19006KT 8000 SCT005 BKN012 16/15 Q1015
Loading
Personal Weather Stations






























Interactive Weather Map
Tropical Storm Tracking
New forecast layout! Learn more

10-Day Weather Forecast

Advertisements
Track Severe Weather on mobile